Flight Track Log - Related Links

Times and Time Zones

All times are in EDT time to prevent confusion due to time zone crossing. See the AAY854 flight status page for this flight to view local times or setup timezone preferences in your user account.

Time Position Orientation Groundspeed Altitude Reporting Facility
EDT Latitude Longitude Course Direction KTS MPH feet Rate Location/Type
Mon 05:13:16 PM 27.9333 -82.7000 351° North 168 193 800  Level Tampa TRACON
Mon 05:14:04 PM 27.9667 -82.6833 24° Northeast 197 227 2,500 2,176 Climbing Tampa TRACON
Mon 05:16:18 PM 28.1217 -82.7053 353° North 274 315 7,400 2,204 Climbing Miami Center
Mon 05:17:20 PM 28.1981 -82.7233 348° North 277 319 9,700 1,839 Climbing Miami Center
Mon 05:18:22 PM 28.2856 -82.7464 347° North 289 333 11,200 1,574 Climbing Jacksonville Center
Mon 05:19:00 PM 28.5296 -82.8191 351° North  Level FlightAware Approximate
Mon 05:19:22 PM 28.3814 -82.7675 349° North 319 367 12,900  Level Jacksonville Center
Mon 05:20:22 PM 28.4881 -82.7911 349° North 355 409 15,000 2,150 Climbing Jacksonville Center
Mon 05:21:22 PM 28.5944 -82.8169 348° North 380 437 17,200 2,150 Climbing Jacksonville Center
Mon 05:22:22 PM 28.7175 -82.8428 350° North 400 460 19,300 2,050 Climbing Jacksonville Center
Mon 05:23:22 PM 28.8322 -82.8689 349° North 405 466 21,300 1,850 Climbing Jacksonville Center
Mon 05:24:22 PM 28.9450 -82.8972 348° North 412 474 23,000 1,700 Climbing Jacksonville Center
Mon 05:25:22 PM 29.0661 -82.9233 349° North 417 480 24,700 1,750 Climbing Jacksonville Center
Mon 05:26:22 PM 29.1789 -82.9497 348° North 417 480 26,500 1,650 Climbing Jacksonville Center
Mon 05:27:22 PM 29.2936 -82.9783 348° North 417 480 28,000 1,650 Climbing Jacksonville Center
Mon 05:28:22 PM 29.4064 -83.0047 348° North 412 474 29,800 1,333 Climbing Jacksonville Center
Mon 05:30:22 PM 29.6172 -83.0575 348° North 409 471 32,000 525 Climbing Jacksonville Center
Mon 05:32:22 PM 29.8300 -83.1558 338° Northwest 410 472 31,900 -33 Descending Jacksonville Center
Mon 05:33:22 PM 29.9319 -83.2042 338° Northwest 410 472 31,900  Level Jacksonville Center
Mon 05:34:53 PM 30.0969 -83.2794 338° Northwest 410 472 31,900  Level Miami Center
Mon 05:35:55 PM 30.2022 -83.3286 338° Northwest 410 472 31,900  Level Miami Center
Mon 05:37:22 PM 30.3575 -83.4006 338° Northwest 410 472 31,900  Level Jacksonville Center
Mon 05:38:22 PM 30.4617 -83.4542 336° Northwest 410 472 31,900  Level Jacksonville Center
Mon 05:39:22 PM 30.5678 -83.5006 339° North 410 472 31,900  Level Jacksonville Center
Mon 05:40:22 PM 30.6719 -83.5494 338° Northwest 410 472 31,900 50 Level Jacksonville Center
Mon 05:41:22 PM 30.7761 -83.6011 337° Northwest 410 472 32,000 50 Climbing Jacksonville Center
Mon 05:42:22 PM 30.8803 -83.6478 339° North 410 472 32,000  Level Jacksonville Center
Mon 05:44:11 PM 31.0825 -83.7481 337° Northwest 413 475 32,000  Level Atlanta Center
Mon 05:45:11 PM 31.1786 -83.7936 338° Northwest 400 460 32,000  Level Atlanta Center
Mon 05:46:11 PM 31.2831 -83.8444 337° Northwest 400 460 32,000  Level Atlanta Center
Mon 05:47:11 PM 31.3897 -83.8953 338° Northwest 400 460 32,000  Level Atlanta Center
Mon 05:48:11 PM 31.4942 -83.9464 337° Northwest 400 460 32,000  Level Atlanta Center
Mon 05:49:11 PM 31.6150 -83.9828 346° North 400 460 32,000  Level Atlanta Center
Mon 05:50:11 PM 31.7300 -84.0072 350° North 400 460 32,000  Level Atlanta Center
Mon 05:51:11 PM 31.8447 -84.0317 350° North 413 475 32,000  Level Atlanta Center
Mon 05:52:11 PM 31.9553 -84.0558 349° North 413 475 32,000  Level Atlanta Center
Mon 05:54:11 PM 32.1808 -84.1050 350° North 408 470 32,000  Level Atlanta Center
Mon 05:55:11 PM 32.2914 -84.1297 349° North 408 470 32,000  Level Atlanta Center
Mon 05:56:11 PM 32.4019 -84.1569 348° North 408 470 32,000  Level Atlanta Center
Mon 05:58:11 PM 32.6294 -84.2067 350° North 408 470 32,000  Level Atlanta Center
Mon 06:00:11 PM 32.8528 -84.2589 349° North 408 470 32,000  Level Atlanta Center
Mon 06:01:11 PM 32.9633 -84.2839 349° North 408 470 32,000  Level Atlanta Center
Mon 06:03:11 PM 33.1844 -84.3317 350° North 408 470 32,000  Level Atlanta Center
Mon 06:04:11 PM 33.2950 -84.3594 348° North 408 470 32,000  Level Atlanta Center
Mon 06:05:11 PM 33.4014 -84.3847 349° North 402 463 32,000  Level Atlanta Center
Mon 06:06:11 PM 33.5119 -84.4100 349° North 397 457 32,000  Level Atlanta Center
Mon 06:07:11 PM 33.6183 -84.4356 349° North 392 451 32,000  Level Atlanta Center
Mon 06:08:11 PM 33.7308 -84.4608 349° North 399 459 32,000  Level Atlanta Center
Mon 06:11:11 PM 34.0625 -84.5428 351° North 393 452 32,000  Level Atlanta Center
Mon 06:12:11 PM 34.1708 -84.5686 349° North 393 452 32,000  Level Atlanta Center
Mon 06:13:11 PM 34.2814 -84.5969 348° North 398 458 32,000  Level Atlanta Center
Mon 06:14:11 PM 34.3939 -84.6228 349° North 398 458 32,000  Level Atlanta Center
Mon 06:15:11 PM 34.5025 -84.6489 349° North 398 458 32,000  Level Atlanta Center
Mon 06:16:11 PM 34.6150 -84.6772 348° North 403 464 32,000  Level Atlanta Center
Mon 06:19:11 PM 34.9400 -84.7583 349° North 398 458 32,000  Level Atlanta Center
Mon 06:20:11 PM 35.0506 -84.7847 349° North 398 458 32,000  Level Atlanta Center
Mon 06:21:11 PM 35.1631 -84.8136 348° North 398 458 32,000  Level Atlanta Center
Mon 06:22:11 PM 35.2714 -84.8400 349° North 398 458 32,000  Level Atlanta Center
Mon 06:23:11 PM 35.3797 -84.8667 349° North 398 458 32,000  Level Atlanta Center
Mon 06:24:11 PM 35.4900 -84.8958 348° North 398 458 32,000  Level Atlanta Center
Mon 06:25:11 PM 35.5878 -84.9197 349° North 392 451 32,000  Level Atlanta Center
Mon 06:26:11 PM 35.6983 -84.9492 348° North 392 451 32,000  Level Atlanta Center
Mon 06:28:32 PM 35.9622 -85.0139 349° North 401 461 32,000  Level Indianapolis Center
Mon 06:29:34 PM 36.0747 -85.0422 348° North 402 463 32,000  Level Indianapolis Center
Mon 06:30:36 PM 36.1850 -85.0708 348° North 402 463 32,000  Level Indianapolis Center
Mon 06:31:38 PM 36.2944 -85.0981 349° North 402 463 32,000  Level Indianapolis Center
Mon 06:33:42 PM 36.5378 -85.1622 350° North 403 464 32,000  Level Indianapolis Center
Mon 06:34:44 PM 36.6481 -85.1897 349° North 403 464 32,000  Level Indianapolis Center
Mon 06:36:00 PM 36.7799 -85.2203 349° North  Level FlightAware Approximate
Mon 06:36:48 PM 36.8714 -85.2478 349° North 408 470 32,000  Level Indianapolis Center
Mon 06:37:51 PM 36.9819 -85.2786 347° North 408 470 32,000  Level Indianapolis Center
Mon 06:38:53 PM 37.0939 -85.3078 348° North 408 470 32,000  Level Indianapolis Center
Mon 06:39:55 PM 37.2242 -85.3417 348° North 408 470 32,000  Level Indianapolis Center
Mon 06:40:57 PM 37.3350 -85.3697 349° North 407 468 32,000  Level Indianapolis Center
Mon 06:41:59 PM 37.4447 -85.4000 348° North 406 467 32,000  Level Indianapolis Center
Mon 06:43:01 PM 37.5556 -85.4300 348° North 406 467 32,000  Level Indianapolis Center
Mon 06:44:03 PM 37.6678 -85.4592 348° North 406 467 32,000  Level Indianapolis Center
Mon 06:45:05 PM 37.7792 -85.4900 348° North 407 468 32,000  Level Indianapolis Center
Mon 06:46:07 PM 37.8939 -85.5192 349° North 407 468 32,000  Level Indianapolis Center
Mon 06:49:13 PM 38.2519 -85.6047 350° North 408 470 32,000  Level Indianapolis Center
Mon 06:50:15 PM 38.3656 -85.6267 351° North 410 472 32,000  Level Indianapolis Center
Mon 06:51:17 PM 38.4778 -85.6492 351° North 409 471 32,000  Level Indianapolis Center
Mon 06:52:19 PM 38.5900 -85.6706 352° North 409 471 32,000 -97 Level Indianapolis Center
Mon 06:53:21 PM 38.7119 -85.6942 351° North 409 471 31,800 -581 Descending Indianapolis Center
Mon 06:54:23 PM 38.8244 -85.7172 351° North 409 471 30,800 -968 Descending Indianapolis Center
Mon 06:55:25 PM 38.9381 -85.7386 352° North 409 471 29,800 -903 Descending Indianapolis Center
Mon 06:57:29 PM 39.1928 -85.7869 352° North 418 481 28,000 -581 Descending Indianapolis Center
Mon 06:58:31 PM 39.3111 -85.8114 351° North 428 493 28,000  Level Indianapolis Center
Mon 06:59:33 PM 39.4275 -85.8339 352° North 428 493 28,000 -387 Level Indianapolis Center
Mon 07:00:35 PM 39.5442 -85.8578 351° North 428 493 27,200 -1,113 Descending Indianapolis Center
Mon 07:01:37 PM 39.6614 -85.8806 351° North 428 493 25,700 -1,887 Descending Indianapolis Center
Mon 07:02:39 PM 39.8042 -85.9106 351° North 436 502 23,300 -1,790 Descending Indianapolis Center
Mon 07:03:41 PM 39.9200 -85.9336 351° North 433 498 22,000 -629 Descending Indianapolis Center
Mon 07:04:43 PM 40.0311 -85.9553 352° North 417 480 22,000  Level Indianapolis Center
Mon 07:05:45 PM 40.1453 -85.9783 351° North 415 478 22,000  Level Indianapolis Center
Mon 07:07:06 PM 40.3061 -86.0103 351° North 418 481 22,000 -806 Level Chicago Center
Mon 07:08:51 PM 40.5103 -86.0536 351° North 416 479 19,500 -1,554 Descending Indianapolis Center
Mon 07:09:52 PM 40.6206 -86.0778 351° North 405 466 17,700 -1,854 Descending Indianapolis Center
Mon 07:10:54 PM 40.7308 -86.1006 351° North 405 466 15,700 -1,935 Descending Indianapolis Center
Mon 07:11:56 PM 40.8367 -86.1242 350° North 392 451 13,700 -2,129 Descending Indianapolis Center
Mon 07:12:58 PM 40.9631 -86.1514 351° North 387 445 11,300 -1,258 Descending Indianapolis Center
Mon 07:14:00 PM 41.0656 -86.1739 351° North 381 438 11,100 -242 Descending Indianapolis Center
Mon 07:15:02 PM 41.1653 -86.1836 356° North 371 427 10,800 -629 Descending Indianapolis Center
Mon 07:16:04 PM 41.2475 -86.1778 North 322 371 9,800 -1,317 Descending Indianapolis Center
Mon 07:17:05 PM 41.3289 -86.1800 359° North 304 350 8,100 -1,738 Descending Indianapolis Center
Mon 07:18:29 PM 41.4344 -86.1931 355° North 291 335 5,600 -1,685 Descending Chicago Center
Mon 07:19:31 PM 41.5314 -86.2075 354° North 290 334 4,000 -774 Descending Chicago Center
Mon 07:20:33 PM 41.6122 -86.2236 352° North 290 334 4,000 -48 Level Chicago Center
Mon 07:21:35 PM 41.6917 -86.2383 352° North 290 334 3,900 -554 Descending Chicago Center
Mon 07:24:42 PM 41.7625 -86.3217 319° Northwest 167 192 1,700 -699 Descending Chicago Center
Mon 07:25:44 PM 41.7289 -86.3206 179° South 140 161 1,000 -677 Descending Chicago Center

Login

Don't have an account? Register now (free) for customized features, flight alerts, and more!